Time;durP1;ratioP1;P1;durP2;ratioP2;P2;SDS_P1;SDS_P2;PMS_P1;PMS_P2;Temp;Humidity;BMP_temperature;BMP_pressure;BME280_temperature;BME280_humidity;BME280_pressure;Samples;Min_cycle;Max_cycle;Signal;HPM_P1;HPM_P2
2024/04/07 00:01:39;;;;;;;8.00;4.70;;;;;;;19.51;55.47;101671.15;110555;1256;22262;-56
2024/04/07 00:04:06;;;;;;;9.40;4.30;;;;;;;19.55;55.42;101672.73;110538;1266;22444;-56
2024/04/07 00:06:33;;;;;;;7.70;4.50;;;;;;;19.53;55.52;101674.61;110591;1257;22477;-56
2024/04/07 00:09:00;;;;;;;5.60;4.40;;;;;;;19.54;55.51;101670.69;110596;1265;23177;-56
2024/04/07 00:11:28;;;;;;;6.80;4.30;;;;;;;19.56;55.46;101673.39;110573;1266;23206;-56
2024/04/07 00:13:55;;;;;;;4.90;4.40;;;;;;;19.55;55.52;101672.90;110591;1255;23279;-56
2024/04/07 00:16:22;;;;;;;5.60;4.00;;;;;;;19.55;55.57;101674.19;110607;1265;22455;-56
2024/04/07 00:18:49;;;;;;;5.30;4.60;;;;;;;19.58;55.55;101672.82;110567;1256;22282;-56
2024/04/07 00:21:16;;;;;;;5.60;5.00;;;;;;;19.58;55.52;101672.08;110606;1256;22198;-56
2024/04/07 00:23:43;;;;;;;4.80;4.30;;;;;;;19.60;55.50;101670.77;110584;1256;22221;-56
2024/04/07 00:26:10;;;;;;;6.60;4.70;;;;;;;19.61;55.47;101670.36;110419;1270;22173;-56
2024/04/07 00:28:37;;;;;;;5.70;4.70;;;;;;;19.62;55.52;101667.52;110551;1266;22282;-56
2024/04/07 00:31:04;;;;;;;5.60;4.60;;;;;;;19.63;55.37;101663.77;110578;1263;22161;-56
2024/04/07 00:33:31;;;;;;;5.10;4.30;;;;;;;19.60;55.52;101665.64;110581;1256;22479;-56
2024/04/07 00:36:01;;;;;;;5.10;4.60;;;;;;;19.61;55.41;101667.23;110585;1257;22831;-56
2024/04/07 00:38:29;;;;;;;5.80;4.60;;;;;;;19.62;55.45;101663.48;110620;1269;22129;-56
2024/04/07 00:40:56;;;;;;;5.80;5.00;;;;;;;19.63;55.38;101659.73;110549;1257;22976;-56
2024/04/07 00:43:28;;;;;;;4.60;4.20;;;;;;;19.63;55.36;101658.84;110623;1256;22386;-56
2024/04/07 00:45:55;;;;;;;5.00;4.40;;;;;;;19.63;55.38;101656.02;110593;1257;23124;-56
2024/04/07 00:48:25;;;;;;;4.70;4.30;;;;;;;19.64;55.49;101658.99;110474;1260;22322;-56
2024/04/07 00:50:54;;;;;;;5.80;4.90;;;;;;;19.64;55.55;101660.04;110364;1266;22352;-56
2024/04/07 00:53:21;;;;;;;9.80;4.50;;;;;;;19.64;55.57;101656.85;110525;1272;23116;-56
2024/04/07 00:55:47;;;;;;;5.10;4.40;;;;;;;19.64;55.64;101659.66;110440;1260;22328;-56
2024/04/07 00:58:18;;;;;;;6.80;4.80;;;;;;;19.58;55.83;101664.34;110548;1256;22176;-56
2024/04/07 01:00:45;;;;;;;4.60;4.20;;;;;;;19.65;55.72;101664.90;110596;1264;22264;-56
2024/04/07 01:03:16;;;;;;;4.20;3.80;;;;;;;19.68;55.86;101665.46;110600;1263;22372;-56
2024/04/07 01:05:44;;;;;;;9.10;5.00;;;;;;;19.69;55.74;101667.88;110580;1267;22866;-56
2024/04/07 01:08:11;;;;;;;5.70;5.10;;;;;;;19.70;55.72;101665.55;110529;1258;22299;-55
2024/04/07 01:10:38;;;;;;;4.70;4.30;;;;;;;19.71;55.79;101670.27;110557;1263;23090;-56
2024/04/07 01:13:06;;;;;;;5.20;4.40;;;;;;;19.67;55.81;101670.98;110546;1256;22994;-56
2024/04/07 01:15:33;;;;;;;6.20;5.20;;;;;;;19.62;55.92;101670.33;110391;1266;23124;-56
2024/04/07 01:18:00;;;;;;;5.50;4.60;;;;;;;19.56;56.15;101670.97;110602;1256;22382;-56
2024/04/07 01:20:28;;;;;;;5.60;5.00;;;;;;;19.50;56.39;101668.56;110562;1263;22872;-56
2024/04/07 01:22:55;;;;;;;6.20;4.80;;;;;;;19.46;56.59;101671.00;110355;1257;23234;-56
2024/04/07 01:25:22;;;;;;;5.70;5.00;;;;;;;19.45;56.59;101671.73;110569;1256;22165;-56
2024/04/07 01:28:01;;;;;;;5.00;4.60;;;;;;;19.45;56.80;101672.11;110528;1263;22444;-56
2024/04/07 01:30:28;;;;;;;6.60;5.10;;;;;;;19.42;56.99;101672.05;110570;1263;22455;-56
2024/04/07 01:32:55;;;;;;;5.70;5.20;;;;;;;19.37;56.68;101666.49;110585;1257;22182;-56
2024/04/07 01:35:22;;;;;;;6.30;4.90;;;;;;;19.27;56.17;101669.16;110539;1264;22274;-56
2024/04/07 01:37:49;;;;;;;6.10;5.10;;;;;;;19.20;56.10;101666.52;108997;1256;1003038;-57
2024/04/07 01:40:15;;;;;;;6.00;5.40;;;;;;;19.13;56.22;101665.23;110309;1260;22166;-56
2024/04/07 01:42:42;;;;;;;6.20;5.60;;;;;;;19.08;56.32;101671.41;110460;1264;22268;-56
2024/04/07 01:45:09;;;;;;;7.20;6.40;;;;;;;19.03;56.36;101668.65;110553;1260;22909;-56
2024/04/07 01:47:37;;;;;;;6.50;5.80;;;;;;;18.98;56.37;101678.00;110365;1258;22198;-56
2024/04/07 01:50:04;;;;;;;7.10;6.40;;;;;;;18.94;56.48;101676.59;110178;1260;23241;-56
2024/04/07 01:52:31;;;;;;;7.70;7.00;;;;;;;18.91;56.45;101675.13;110528;1267;22314;-56
2024/04/07 01:54:58;;;;;;;8.50;7.50;;;;;;;18.87;56.50;101674.26;110638;1261;22115;-56
2024/04/07 01:57:25;;;;;;;7.50;6.50;;;;;;;18.84;56.82;101673.14;110626;1257;22271;-56
2024/04/07 01:59:51;;;;;;;7.60;6.90;;;;;;;18.83;57.00;101680.73;110436;1254;22286;-56
2024/04/07 02:02:19;;;;;;;7.30;6.60;;;;;;;18.84;56.94;101679.83;110598;1256;22123;-56
2024/04/07 02:04:46;;;;;;;8.10;7.20;;;;;;;18.84;56.81;101679.11;110571;1251;22564;-56
2024/04/07 02:07:15;;;;;;;7.90;7.10;;;;;;;18.85;56.95;101680.84;110565;1256;22988;-56
2024/04/07 02:09:42;;;;;;;8.40;7.30;;;;;;;18.83;56.85;101684.08;110372;1260;22257;-56
2024/04/07 02:12:08;;;;;;;7.80;7.10;;;;;;;18.83;56.89;101685.50;110564;1262;22447;-56
2024/04/07 02:14:35;;;;;;;8.30;7.20;;;;;;;18.85;56.84;101687.70;110590;1255;22494;-56
2024/04/07 02:17:02;;;;;;;8.00;7.20;;;;;;;18.85;56.71;101690.32;108254;1254;1002756;-56
2024/04/07 02:19:29;;;;;;;7.40;6.70;;;;;;;18.84;56.82;101696.00;110240;1257;23156;-56
2024/04/07 02:21:56;;;;;;;9.00;7.40;;;;;;;18.84;56.67;101698.28;110545;1257;23049;-57
2024/04/07 02:24:23;;;;;;;7.80;7.10;;;;;;;18.84;56.77;101699.88;110554;1260;23303;-56
2024/04/07 02:26:50;;;;;;;8.80;7.80;;;;;;;18.81;56.84;101697.55;110535;1255;22298;-56
2024/04/07 02:29:17;;;;;;;9.40;8.10;;;;;;;18.79;56.90;101697.45;110547;1254;22201;-56
2024/04/07 02:31:43;;;;;;;9.00;8.20;;;;;;;18.78;56.98;101697.31;110526;1251;22544;-56
2024/04/07 02:34:10;;;;;;;15.40;12.70;;;;;;;18.77;57.03;101698.92;110537;1260;22193;-56
2024/04/07 02:36:37;;;;;;;15.70;14.10;;;;;;;18.73;56.79;101706.99;110543;1257;22126;-56
2024/04/07 02:39:09;;;;;;;15.30;13.80;;;;;;;18.68;56.79;101714.40;110589;1254;22499;-56
2024/04/07 02:41:36;;;;;;;16.30;14.10;;;;;;;18.63;56.72;101718.10;110301;1256;22248;-56
2024/04/07 02:44:03;;;;;;;16.10;14.40;;;;;;;18.60;56.83;101725.46;110536;1257;22239;-56
2024/04/07 02:49:16;;;;;;;18.90;16.90;;;;;;;18.47;56.78;101737.56;110587;1257;22280;-55
2024/04/07 02:51:43;;;;;;;17.90;16.10;;;;;;;18.41;57.06;101740.58;109095;1251;1003037;-56
2024/04/07 02:54:12;;;;;;;19.40;16.60;;;;;;;18.36;57.26;101740.80;110549;1254;22470;-56
2024/04/07 02:56:40;;;;;;;16.80;15.10;;;;;;;18.30;57.36;101741.02;110327;1264;22171;-56
2024/04/07 02:59:06;;;;;;;14.90;12.30;;;;;;;18.26;57.63;101747.66;110616;1254;22499;-56
2024/04/07 03:01:34;;;;;;;11.80;10.50;;;;;;;18.23;57.89;101757.27;110580;1263;22436;-56
2024/04/07 03:04:00;;;;;;;9.30;8.40;;;;;;;18.17;58.23;101761.16;110594;1256;23206;-56
2024/04/07 03:06:27;;;;;;;8.50;7.70;;;;;;;18.14;58.45;101761.98;110589;1261;22429;-56
2024/04/07 03:08:57;;;;;;;8.30;7.40;;;;;;;18.11;58.70;101764.04;110542;1263;22112;-56
2024/04/07 03:11:23;;;;;;;8.10;7.30;;;;;;;18.11;58.93;101771.41;110569;1263;23272;-56
2024/04/07 03:13:50;;;;;;;8.30;7.40;;;;;;;18.12;59.11;101777.17;110550;1257;22113;-56
2024/04/07 03:16:17;;;;;;;7.50;6.80;;;;;;;18.14;59.22;101781.84;110346;1267;22464;-56
2024/04/07 03:18:44;;;;;;;7.80;6.20;;;;;;;18.15;59.32;101783.39;110585;1263;22279;-55
2024/04/07 03:21:10;;;;;;;7.80;7.00;;;;;;;18.15;59.48;101783.91;110556;1256;22348;-56
2024/04/07 03:23:37;;;;;;;7.10;6.40;;;;;;;18.16;59.44;101783.35;110565;1251;22148;-56
2024/04/07 03:26:04;;;;;;;8.60;6.70;;;;;;;18.16;59.54;101785.80;109741;1257;1002490;-56
2024/04/07 03:28:31;;;;;;;5.90;5.40;;;;;;;18.16;59.61;101789.30;110586;1267;23052;-56
2024/04/07 03:30:58;;;;;;;6.60;5.90;;;;;;;18.18;59.77;101791.16;110563;1256;22863;-56
2024/04/07 03:33:25;;;;;;;6.70;6.00;;;;;;;18.14;59.89;101795.89;110560;1256;22162;-56
2024/04/07 03:36:04;;;;;;;8.10;4.90;;;;;;;18.19;59.81;101796.04;110593;1251;22263;-57
2024/04/07 03:38:31;;;;;;;5.40;4.80;;;;;;;18.21;59.67;101796.52;110547;1255;22863;-56
2024/04/07 03:41:02;;;;;;;5.60;4.90;;;;;;;18.22;59.64;101796.47;110622;1256;23019;-56
2024/04/07 03:43:29;;;;;;;6.40;4.30;;;;;;;18.23;59.70;101794.15;110404;1270;22135;-56
2024/04/07 03:46:00;;;;;;;4.80;4.30;;;;;;;18.24;59.76;101800.23;110207;1260;22377;-56
2024/04/07 03:48:27;;;;;;;5.30;4.80;;;;;;;18.26;59.57;101804.39;110383;1259;22079;-56
2024/04/07 03:50:56;;;;;;;5.10;4.60;;;;;;;18.28;59.75;101806.79;110546;1253;23048;-56
2024/04/07 03:53:27;;;;;;;5.10;4.60;;;;;;;18.30;59.70;101810.90;110583;1251;22836;-56
2024/04/07 03:55:53;;;;;;;5.40;4.90;;;;;;;18.33;59.79;101815.73;110405;1257;22467;-56
2024/04/07 03:58:20;;;;;;;5.30;4.80;;;;;;;18.35;59.72;101814.95;110366;1267;22280;-56
2024/04/07 04:00:47;;;;;;;4.80;4.40;;;;;;;18.38;59.70;101819.56;110628;1251;22090;-56
2024/04/07 04:03:14;;;;;;;5.30;4.80;;;;;;;18.43;59.49;101822.74;110588;1261;22254;-56
2024/04/07 04:05:41;;;;;;;5.10;4.60;;;;;;;18.45;59.25;101827.44;110556;1251;22441;-56
2024/04/07 04:08:08;;;;;;;5.30;4.40;;;;;;;18.47;59.17;101830.69;110416;1257;22473;-56
2024/04/07 04:10:39;;;;;;;5.00;4.60;;;;;;;18.50;58.92;101830.75;110600;1260;22351;-56
2024/04/07 04:13:06;;;;;;;4.90;4.40;;;;;;;18.49;58.91;101836.41;110579;1260;22385;-56
2024/04/07 04:15:36;;;;;;;4.90;4.00;;;;;;;18.52;58.99;101838.59;110533;1259;23226;-56
2024/04/07 04:18:05;;;;;;;3.90;3.60;;;;;;;18.57;58.78;101846.31;110569;1255;23324;-56
2024/04/07 04:20:32;;;;;;;4.10;3.70;;;;;;;18.58;58.61;101841.69;110534;1261;22396;-56
2024/04/07 04:22:59;;;;;;;4.10;3.50;;;;;;;18.58;58.34;101848.01;110569;1260;23084;-56
2024/04/07 04:25:26;;;;;;;4.00;3.20;;;;;;;18.58;58.33;101849.27;110594;1260;22417;-56
2024/04/07 04:27:53;;;;;;;3.20;2.80;;;;;;;18.56;58.13;101853.87;110599;1257;22994;-56
2024/04/07 04:30:20;;;;;;;6.70;3.10;;;;;;;18.56;58.12;101858.98;110635;1255;23216;-56
2024/04/07 04:32:48;;;;;;;3.60;3.20;;;;;;;18.56;58.07;101864.09;110596;1256;22908;-56
2024/04/07 04:35:15;;;;;;;4.90;3.60;;;;;;;18.55;58.05;101866.39;110570;1253;22454;-56
2024/04/07 04:37:41;;;;;;;3.00;2.80;;;;;;;18.56;58.06;101869.00;110137;1271;22273;-56
2024/04/07 04:40:11;;;;;;;3.00;2.70;;;;;;;18.57;57.94;101874.24;110235;1259;22411;-56
2024/04/07 04:42:38;;;;;;;3.70;3.20;;;;;;;18.56;57.81;101876.02;110333;1270;22983;-56
2024/04/07 04:45:06;;;;;;;3.50;3.30;;;;;;;18.54;57.80;101883.85;110354;1264;23231;-56
2024/04/07 04:47:33;;;;;;;4.00;3.30;;;;;;;18.50;57.94;101884.88;110579;1255;22457;-56
2024/04/07 04:50:01;;;;;;;4.40;3.90;;;;;;;18.49;58.21;101889.45;110343;1258;22992;-56
2024/04/07 04:52:29;;;;;;;5.50;3.70;;;;;;;18.68;57.74;101888.94;110392;1259;22213;-56
2024/04/07 04:54:57;;;;;;;5.40;4.60;;;;;;;18.75;57.62;101892.03;110599;1253;22500;-56
2024/04/07 04:57:23;;;;;;;7.70;6.70;;;;;;;18.79;57.78;101898.71;110414;1261;22271;-56
2024/04/07 04:59:53;;;;;;;10.50;9.40;;;;;;;18.81;57.77;101900.05;110477;1264;22173;-56
2024/04/07 05:02:22;;;;;;;10.30;9.30;;;;;;;18.81;57.75;101905.66;110566;1252;22300;-56
2024/04/07 05:04:52;;;;;;;10.40;9.40;;;;;;;18.81;57.91;101905.34;110605;1256;22425;-56
2024/04/07 05:07:19;;;;;;;11.00;9.60;;;;;;;18.81;57.87;101910.79;110587;1255;22165;-56
2024/04/07 05:09:46;;;;;;;11.40;9.80;;;;;;;18.78;58.15;101910.89;110613;1254;22418;-56
2024/04/07 05:12:13;;;;;;;10.60;9.50;;;;;;;18.75;58.33;101912.07;110569;1259;22200;-56
2024/04/07 05:14:40;;;;;;;11.70;10.60;;;;;;;18.76;58.49;101918.87;110604;1253;22431;-56
2024/04/07 05:17:08;;;;;;;11.60;10.50;;;;;;;18.79;58.62;101920.19;110545;1256;23179;-56
2024/04/07 05:19:35;;;;;;;11.70;10.60;;;;;;;18.83;58.51;101924.42;110560;1256;22676;-56
2024/04/07 05:22:03;;;;;;;11.30;10.30;;;;;;;18.86;58.50;101923.44;110513;1256;22430;-56
2024/04/07 05:24:31;;;;;;;11.80;10.60;;;;;;;18.88;58.22;101927.55;110602;1255;22408;-57
2024/04/07 05:26:58;;;;;;;11.60;10.20;;;;;;;18.89;58.29;101929.46;110304;1259;22201;-56
2024/04/07 05:29:24;;;;;;;11.30;10.10;;;;;;;18.90;58.28;101932.04;110586;1256;22169;-56
2024/04/07 05:31:51;;;;;;;12.00;10.80;;;;;;;18.93;58.51;101935.10;110601;1254;22258;-56
2024/04/07 05:34:18;;;;;;;13.00;11.60;;;;;;;18.98;58.64;101939.86;110554;1256;22109;-56
2024/04/07 05:36:45;;;;;;;13.10;11.90;;;;;;;19.01;58.48;101943.42;110567;1252;22177;-56
2024/04/07 05:39:12;;;;;;;13.30;12.10;;;;;;;19.01;58.77;101944.45;110573;1251;23156;-56
2024/04/07 05:41:39;;;;;;;14.70;13.10;;;;;;;19.04;58.74;101946.98;110579;1257;22343;-56
2024/04/07 05:44:06;;;;;;;14.20;12.80;;;;;;;19.06;58.57;101947.79;110595;1252;22383;-56
2024/04/07 05:46:32;;;;;;;13.50;12.10;;;;;;;19.06;58.63;101947.80;110577;1257;22398;-56
2024/04/07 05:48:59;;;;;;;12.90;11.60;;;;;;;19.09;58.80;101951.04;110627;1253;22410;-56
2024/04/07 05:51:26;;;;;;;12.50;11.10;;;;;;;19.12;58.74;101951.59;110563;1252;22202;-56
2024/04/07 05:53:53;;;;;;;11.80;10.70;;;;;;;19.16;58.61;101953.89;110578;1256;22957;-56
2024/04/07 05:56:20;;;;;;;10.50;9.50;;;;;;;19.20;58.54;101955.86;110568;1255;22430;-56
2024/04/07 05:58:46;;;;;;;10.20;9.30;;;;;;;19.25;58.43;101954.64;110588;1254;22108;-56
2024/04/07 06:01:13;;;;;;;9.90;8.90;;;;;;;19.30;58.12;101957.75;110201;1259;22423;-56
2024/04/07 06:03:40;;;;;;;9.10;8.20;;;;;;;19.39;58.06;101954.45;110585;1251;22837;-56
2024/04/07 06:06:07;;;;;;;8.80;8.00;;;;;;;19.49;57.79;101952.48;110536;1274;22123;-57
2024/04/07 06:08:34;;;;;;;9.20;8.20;;;;;;;19.61;57.62;101953.23;110532;1268;22344;-56
2024/04/07 06:11:04;;;;;;;9.10;7.60;;;;;;;19.77;57.39;101950.13;110597;1274;22335;-56
2024/04/07 06:13:31;;;;;;;7.70;6.90;;;;;;;19.97;56.86;101949.08;110609;1254;22309;-56
2024/04/07 06:15:58;;;;;;;7.20;6.60;;;;;;;20.24;56.27;101952.70;110571;1251;22381;-56
2024/04/07 06:18:25;;;;;;;7.20;6.50;;;;;;;20.53;55.80;101956.54;110105;1263;22345;-56
2024/04/07 06:20:53;;;;;;;6.20;5.60;;;;;;;20.85;54.97;101949.61;110533;1252;22506;-56
2024/04/07 06:23:23;;;;;;;5.70;5.20;;;;;;;21.15;53.97;101953.91;110568;1252;23112;-56
2024/04/07 06:25:50;;;;;;;6.90;5.10;;;;;;;21.38;53.10;101954.05;110574;1251;22161;-56
2024/04/07 06:28:16;;;;;;;4.90;4.40;;;;;;;21.54;52.53;101958.39;110526;1264;23246;-56
2024/04/07 06:30:46;;;;;;;4.30;3.90;;;;;;;21.70;52.26;101961.48;110576;1255;22397;-56
2024/04/07 06:33:13;;;;;;;4.00;3.30;;;;;;;21.93;51.81;101959.31;110556;1256;23206;-56
2024/04/07 06:35:42;;;;;;;3.20;2.90;;;;;;;22.14;51.09;101963.20;110537;1254;22419;-56
2024/04/07 06:38:08;;;;;;;6.20;2.70;;;;;;;22.26;50.66;101958.51;110601;1256;22349;-56
2024/04/07 06:40:35;;;;;;;3.00;2.80;;;;;;;22.33;50.33;101963.45;110252;1260;22477;-56
2024/04/07 06:43:02;;;;;;;3.50;2.60;;;;;;;22.40;50.26;101967.68;110636;1251;23222;-56
2024/04/07 06:45:29;;;;;;;2.50;2.10;;;;;;;22.48;49.63;101975.20;110561;1252;22285;-56
2024/04/07 06:47:56;;;;;;;2.30;1.90;;;;;;;22.52;49.32;101977.09;110624;1252;22455;-56
2024/04/07 06:50:23;;;;;;;1.90;1.80;;;;;;;22.54;49.24;101978.27;110651;1256;22519;-57
2024/04/07 06:52:50;;;;;;;3.30;1.90;;;;;;;22.55;49.35;101977.85;110574;1259;22117;-56
2024/04/07 06:55:16;;;;;;;1.60;1.50;;;;;;;22.64;48.92;101981.13;110381;1267;22460;-56
2024/04/07 06:57:44;;;;;;;1.80;1.70;;;;;;;22.77;48.83;101984.54;110632;1257;22235;-56
2024/04/07 07:00:13;;;;;;;2.00;1.80;;;;;;;22.90;48.46;101983.61;110606;1267;23016;-56
2024/04/07 07:02:40;;;;;;;1.60;1.40;;;;;;;23.02;47.73;101986.67;110583;1267;23111;-56
2024/04/07 07:05:08;;;;;;;1.90;1.70;;;;;;;23.10;47.17;101990.33;110605;1267;22325;-56
2024/04/07 07:07:35;;;;;;;2.00;1.40;;;;;;;23.13;46.84;101989.61;110617;1253;22378;-56
2024/04/07 07:10:06;;;;;;;1.70;1.60;;;;;;;23.12;47.02;101990.75;110546;1268;22620;-56
2024/04/07 07:12:33;;;;;;;1.90;1.70;;;;;;;23.12;47.03;101994.44;110478;1259;22166;-56
2024/04/07 07:14:59;;;;;;;3.80;3.10;;;;;;;23.18;47.42;101996.08;110585;1256;22285;-56
2024/04/07 07:17:26;;;;;;;3.70;2.90;;;;;;;23.27;48.31;101999.64;110225;1260;22634;-57
2024/04/07 07:19:54;;;;;;;3.10;2.70;;;;;;;23.44;47.66;101995.52;110563;1267;22436;-57
2024/04/07 07:22:21;;;;;;;2.50;2.30;;;;;;;23.61;47.81;101998.81;109826;1252;1002953;-57
2024/04/07 07:24:47;;;;;;;4.60;2.90;;;;;;;23.80;47.28;101998.60;110595;1252;22358;-57
2024/04/07 07:27:14;;;;;;;4.40;3.50;;;;;;;23.93;47.14;102001.58;110633;1259;22277;-56
2024/04/07 07:29:41;;;;;;;4.60;3.40;;;;;;;23.78;47.26;102004.92;110588;1267;22742;-56
2024/04/07 07:32:10;;;;;;;4.80;3.70;;;;;;;23.63;47.40;102011.65;110573;1253;23170;-57
2024/04/07 07:34:37;;;;;;;3.30;3.10;;;;;;;23.46;47.79;102015.07;110603;1259;22429;-56
2024/04/07 07:37:03;;;;;;;6.10;3.80;;;;;;;23.43;48.11;102021.13;110569;1255;22421;-56
2024/04/07 07:39:30;;;;;;;4.80;3.10;;;;;;;23.34;48.45;102023.00;110632;1255;22342;-57
2024/04/07 07:41:57;;;;;;;4.30;3.00;;;;;;;23.22;48.88;102029.28;110573;1256;22077;-56
2024/04/07 07:44:24;;;;;;;4.40;2.70;;;;;;;23.21;48.97;102032.73;110586;1266;22409;-56
2024/04/07 07:46:51;;;;;;;3.70;2.80;;;;;;;23.19;48.70;102033.52;110565;1251;22293;-56
2024/04/07 07:49:18;;;;;;;4.50;2.80;;;;;;;23.05;48.64;102041.05;110617;1256;22409;-56
2024/04/07 07:51:44;;;;;;;4.10;3.00;;;;;;;22.95;48.30;102043.54;110189;1262;22293;-56
2024/04/07 07:54:11;;;;;;;3.80;3.40;;;;;;;22.94;47.66;102052.05;110570;1268;22963;-56
2024/04/07 07:56:38;;;;;;;4.90;4.40;;;;;;;22.93;47.07;102056.20;110617;1267;22966;-56
2024/04/07 07:59:05;;;;;;;5.10;4.60;;;;;;;22.92;47.22;102056.25;110439;1274;22270;-57
2024/04/07 08:01:32;;;;;;;6.70;5.70;;;;;;;22.95;47.64;102062.80;110607;1253;22231;-56
2024/04/07 08:03:58;;;;;;;6.10;5.50;;;;;;;23.04;47.34;102065.55;110584;1263;22194;-56
2024/04/07 08:06:25;;;;;;;6.80;6.20;;;;;;;23.26;46.49;102067.33;110551;1274;22145;-56
2024/04/07 08:08:52;;;;;;;7.80;7.10;;;;;;;23.26;46.37;102070.19;110659;1255;22804;-56
2024/04/07 08:11:19;;;;;;;7.40;6.80;;;;;;;23.06;46.89;102073.56;110557;1256;23131;-56
2024/04/07 08:13:46;;;;;;;7.00;5.60;;;;;;;22.85;46.95;102069.90;110552;1274;22323;-56
2024/04/07 08:16:13;;;;;;;4.40;3.30;;;;;;;22.72;46.39;102069.70;110576;1267;22593;-57
2024/04/07 08:18:40;;;;;;;3.60;2.90;;;;;;;22.57;46.28;102069.01;110455;1271;22132;-56
2024/04/07 08:21:07;;;;;;;4.50;2.90;;;;;;;22.49;46.30;102072.73;110353;1274;22499;-56
2024/04/07 08:23:34;;;;;;;3.00;2.10;;;;;;;22.43;46.06;102075.00;110615;1253;22349;-56
2024/04/07 08:26:01;;;;;;;2.50;1.90;;;;;;;22.32;46.22;102079.48;110336;1274;22414;-56
2024/04/07 08:28:30;;;;;;;3.50;1.70;;;;;;;22.29;45.73;102083.84;110543;1274;22355;-56
2024/04/07 08:30:57;;;;;;;2.90;1.60;;;;;;;22.28;45.69;102087.28;110602;1256;23035;-56
2024/04/07 08:33:24;;;;;;;2.40;1.80;;;;;;;22.35;45.71;102089.92;110583;1266;22497;-56
2024/04/07 08:35:51;;;;;;;3.20;2.00;;;;;;;22.35;46.00;102096.83;110585;1258;22294;-56
2024/04/07 08:38:18;;;;;;;1.60;1.40;;;;;;;22.47;45.95;102102.22;110611;1267;23268;-57
2024/04/07 08:40:46;;;;;;;1.60;1.50;;;;;;;22.56;45.59;102105.85;110587;1274;22165;-56
2024/04/07 08:43:13;;;;;;;2.30;1.70;;;;;;;22.58;45.30;102106.63;110596;1269;22340;-56
2024/04/07 08:45:40;;;;;;;2.00;1.50;;;;;;;22.59;44.88;102108.89;110511;1274;22205;-56
2024/04/07 08:48:07;;;;;;;1.50;1.40;;;;;;;22.58;44.80;102109.50;110422;1275;22155;-56
2024/04/07 08:50:34;;;;;;;2.40;1.80;;;;;;;22.55;45.12;102112.41;110459;1275;22118;-56
2024/04/07 08:53:02;;;;;;;3.20;1.90;;;;;;;22.55;45.68;102115.09;110555;1274;22364;-56
2024/04/07 08:55:29;;;;;;;3.00;2.00;;;;;;;22.58;45.82;102121.68;110575;1253;22462;-56
2024/04/07 08:57:56;;;;;;;2.30;1.80;;;;;;;22.63;46.03;102120.02;110382;1274;22170;-56
2024/04/07 09:00:23;;;;;;;2.60;1.70;;;;;;;22.71;45.90;102122.98;110503;1268;22439;-56
2024/04/07 09:02:50;;;;;;;1.70;1.60;;;;;;;22.76;45.20;102126.45;110177;1274;22447;-56
2024/04/07 09:05:17;;;;;;;3.60;1.70;;;;;;;22.77;44.85;102130.46;110587;1274;23150;-56
2024/04/07 09:07:43;;;;;;;1.80;1.50;;;;;;;22.77;44.83;102131.87;110346;1267;22465;-57
2024/04/07 09:10:11;;;;;;;2.40;1.30;;;;;;;22.73;45.41;102132.63;110210;1274;22132;-56
2024/04/07 09:12:38;;;;;;;2.00;1.60;;;;;;;22.76;45.24;102129.80;110587;1268;22332;-56
2024/04/07 09:15:08;;;;;;;1.30;1.20;;;;;;;22.84;45.35;102135.56;110599;1266;23390;-56
2024/04/07 09:17:35;;;;;;;1.90;1.40;;;;;;;22.91;45.03;102134.88;110322;1271;23083;-56
2024/04/07 09:20:06;;;;;;;2.40;1.80;;;;;;;22.94;45.31;102134.20;110608;1267;22359;-56
2024/04/07 09:22:34;;;;;;;2.80;1.70;;;;;;;22.97;45.34;102137.40;110607;1267;22115;-56
2024/04/07 09:25:02;;;;;;;2.10;1.90;;;;;;;22.97;45.67;102137.76;110192;1272;22167;-56
2024/04/07 09:27:29;;;;;;;2.50;2.00;;;;;;;22.99;46.09;102139.05;110571;1268;22109;-56
2024/04/07 09:29:56;;;;;;;2.60;2.00;;;;;;;23.03;45.98;102150.02;110263;1271;22272;-56
2024/04/07 09:32:24;;;;;;;2.30;2.10;;;;;;;23.02;45.75;102145.99;110629;1266;22347;-56
2024/04/07 09:34:51;;;;;;;3.10;2.30;;;;;;;22.97;45.58;102150.30;110620;1266;22372;-56
2024/04/07 09:37:18;;;;;;;3.90;2.30;;;;;;;22.92;45.65;102152.32;110632;1266;23170;-56
2024/04/07 09:39:45;;;;;;;2.40;2.10;;;;;;;22.88;46.09;102152.75;110603;1267;22457;-57
2024/04/07 09:42:11;;;;;;;2.40;2.20;;;;;;;22.90;46.19;102157.41;110425;1272;22937;-56
2024/04/07 09:44:40;;;;;;;4.60;2.50;;;;;;;22.97;46.18;102159.70;110280;1271;22078;-56
2024/04/07 09:47:08;;;;;;;3.60;3.20;;;;;;;23.06;46.48;102163.30;110511;1268;23414;-56
2024/04/07 09:49:39;;;;;;;5.40;3.10;;;;;;;23.15;46.43;102164.23;110511;1274;22412;-56
2024/04/07 09:52:07;;;;;;;7.00;4.80;;;;;;;23.21;46.22;102167.46;110619;1267;22433;-56
2024/04/07 09:54:41;;;;;;;4.90;4.40;;;;;;;23.24;46.44;102165.70;110616;1267;22273;-56
2024/04/07 09:57:09;;;;;;;5.10;4.60;;;;;;;23.25;46.46;102170.09;109747;1269;1002699;-57
2024/04/07 09:59:37;;;;;;;6.30;5.20;;;;;;;23.27;46.50;102171.05;110581;1269;23108;-56
2024/04/07 10:02:04;;;;;;;6.20;5.60;;;;;;;23.31;46.77;102168.70;109832;1267;1002167;-56
2024/04/07 10:04:34;;;;;;;6.70;6.00;;;;;;;23.36;46.47;102173.05;110597;1269;22116;-56
2024/04/07 10:07:02;;;;;;;6.00;5.50;;;;;;;23.38;46.43;102172.63;110564;1270;22471;-56
2024/04/07 10:09:29;;;;;;;6.90;6.20;;;;;;;23.39;46.43;102175.05;110605;1264;22297;-57
2024/04/07 10:11:56;;;;;;;7.50;6.00;;;;;;;23.42;46.58;102175.25;110351;1267;22606;-56
2024/04/07 10:14:23;;;;;;;6.90;6.10;;;;;;;23.44;46.30;102175.48;110562;1274;22125;-56
2024/04/07 10:16:54;;;;;;;7.20;5.80;;;;;;;23.44;46.46;102173.85;110581;1269;22141;-56
2024/04/07 10:19:24;;;;;;;8.40;6.60;;;;;;;23.47;46.46;102175.31;110460;1269;22334;-56
2024/04/07 10:21:52;;;;;;;6.40;5.80;;;;;;;23.50;46.24;102179.05;110591;1269;23188;-56
2024/04/07 10:24:19;;;;;;;6.90;6.20;;;;;;;23.54;46.19;102179.17;110565;1269;22136;-56
2024/04/07 10:26:58;;;;;;;6.60;5.70;;;;;;;23.59;46.32;102179.27;110517;1274;22404;-56
2024/04/07 10:29:26;;;;;;;6.20;5.60;;;;;;;23.64;46.35;102179.88;110567;1270;22298;-56
2024/04/07 10:31:53;;;;;;;9.80;6.50;;;;;;;23.69;46.39;102180.34;110631;1266;22138;-57
2024/04/07 10:34:20;;;;;;;6.50;5.70;;;;;;;23.72;46.36;102178.91;110575;1274;23253;-56
2024/04/07 10:36:55;;;;;;;6.20;5.70;;;;;;;23.75;46.23;102176.64;110438;1269;22277;-56
2024/04/07 10:39:23;;;;;;;5.90;5.40;;;;;;;23.78;45.96;102182.31;110572;1269;23321;-56
2024/04/07 10:41:50;;;;;;;6.10;5.50;;;;;;;23.77;45.90;102183.05;110560;1274;22406;-57
2024/04/07 10:44:18;;;;;;;7.60;6.10;;;;;;;23.74;46.08;102180.77;110574;1274;22077;-57
2024/04/07 10:46:45;;;;;;;6.60;6.00;;;;;;;23.72;45.98;102182.23;110626;1266;23133;-56
2024/04/07 10:49:13;;;;;;;7.90;5.40;;;;;;;23.71;46.18;102181.25;110539;1274;22219;-57
2024/04/07 10:51:46;;;;;;;6.90;5.40;;;;;;;23.70;46.19;102184.31;110549;1271;22392;-56
2024/04/07 10:54:13;;;;;;;5.00;4.60;;;;;;;23.69;46.16;102187.95;110600;1269;22417;-57
2024/04/07 10:56:40;;;;;;;7.60;4.40;;;;;;;23.66;45.97;102185.99;110376;1267;264122;-56
2024/04/07 10:59:07;;;;;;;4.80;4.30;;;;;;;23.59;46.23;102185.12;110594;1268;22539;-57
2024/04/07 11:01:34;;;;;;;4.70;4.20;;;;;;;23.55;46.14;102182.33;110568;1274;22396;-56
2024/04/07 11:04:01;;;;;;;4.60;4.20;;;;;;;23.50;46.23;102187.18;110554;1269;22432;-56
2024/04/07 11:06:28;;;;;;;4.20;3.80;;;;;;;23.46;46.21;102195.18;110599;1269;22320;-56
2024/04/07 11:08:56;;;;;;;4.20;3.80;;;;;;;23.41;46.55;102196.55;110451;1270;22213;-56
2024/04/07 11:11:23;;;;;;;4.50;4.10;;;;;;;23.37;46.51;102196.70;110592;1272;23259;-56
2024/04/07 11:13:54;;;;;;;4.40;3.70;;;;;;;23.35;46.62;102199.65;110544;1269;23089;-56
2024/04/07 11:16:21;;;;;;;3.80;3.50;;;;;;;23.33;46.43;102202.80;110485;1268;22993;-56
2024/04/07 11:18:48;;;;;;;3.70;3.40;;;;;;;23.29;46.42;102204.90;110635;1266;23375;-56